Wadsworth, New York
Current Conditions -  °F | °C
As of 6:54 AM on Monday 24 Nov 2014 (Local Time) from KDSV Reporting Station
Overcast Overcast  
Wind Chill: 59°   Ceiling: 4500
Heat Index: 59°   Visibility: 10mi
Dew Point: 51°   Wind: 15mph
Humidity: 75%   Direction: 150°SSE
Pressure: 29.37"   Gusts: 28mph
Location:  42.8438°N, 77.8874°W
Report Text: KDSV 241154Z AUTO 15013G24KT 10SM BKN045 OVC060 15/11 A2937 RMK AO2 PK WND 14026/1127 SLP954 60010 70010 T01500106 10150 20100 55014
Loading
Personal Weather Stations






























Interactive Weather Map New forecast layout! Learn more

10-Day Weather Forecast

Advertisements
Track Severe Weather on mobile